Smiths Park, South Dakota
Current Conditions -  °F | °C
As of 7:55 PM on Wednesday 22 Oct 2014 (Local Time) from KMDS Reporting Station
Overcast Overcast  
Wind Chill: 12°   Ceiling: 600
Heat Index: 12°   Visibility: 10mi
Dew Point: 12°   Wind: 7mph
Humidity: 100%   Direction: 250°WSW
Pressure: 29.99"   Gusts: NA
Location:  43.9868°N, 96.9457°W
Report Text: KMDS 230055Z AUTO 25006KT 10SM OVC006 12/12 A2999 RMK AO2
Loading
Personal Weather Stations






























Interactive Weather Map
Tropical Storm Tracking
New forecast layout! Learn more

10-Day Weather Forecast

Advertisements
Track Severe Weather on mobile